San Francisco Belle — WDA2499 — position and weather

sailwx.info

Track history (hours):
 
Tides and Currents Weather Stations Pressure Air Temp Water Temp Dewpoint Dewpoint Depression Visibility Wind Speed Wind Dir Waves Ship Positions

San Francisco Belle

Owner: HORNBLOWER CRUISES AND EVENTS, SAN FRANCISCO, CA. More information available from US FCC via Universal Licensing System and Coast Guard Vessel Documentation Center.

Last reported at 2018-Jun-15 15:03 UTC. Time now 2018-Jun-21 17:56 UTC.
Position N 38°05' W 122°15'.

Length 67 m; draft 2.1 m.

Type: Passenger vessel. MMSI: 367006980.

Date/timePositionNaut miles runAvg speedWind from/ knotsBaromVisibWave heightAir tempDewpointWater temp
2018-Jun-15 15:03N 38°05' W 122°15'0 0.1
2018-Jun-15 14:56N 38°05' W 122°15'1 2.9
2018-Jun-15 14:27N 38°04' W 122°15'0 0.5
2018-Jun-15 13:57N 38°04' W 122°15'0 0.4
2018-Jun-15 13:13N 38°04' W 122°15'1 0.7
2018-Jun-15 12:29N 38°04' W 122°16'0 0.1
2018-Jun-15 11:32N 38°04' W 122°15'0 1.5
2018-Jun-15 11:28N 38°04' W 122°15'0 0.6
2018-Jun-15 11:00N 38°04' W 122°15'2 3.3
2018-Jun-15 10:26N 38°06' W 122°16'2 3.0
2018-Jun-15 09:42N 38°04' W 122°16'1 5.1
2018-Jun-15 09:30N 38°03' W 122°17'3 4.9
2018-Jun-15 08:58N 38°02' W 122°20'3 7.3
2018-Jun-15 08:30N 38°00' W 122°24'4 7.8
2018-Jun-15 08:00N 37°57' W 122°27'3 5.3
2018-Jun-15 07:30N 37°55' W 122°25'2 4.4
2018-Jun-15 07:00N 37°53' W 122°24'3 6.3
2018-Jun-15 06:30N 37°50' W 122°23'2 3.6
2018-Jun-15 06:00N 37°48' W 122°24'0 0.0
2018-Jun-15 05:30N 37°48' W 122°24'0 0.0
2018-Jun-15 05:00N 37°48' W 122°24'  
Track history (hours):
 
Tides and Currents Weather Stations Pressure Air Temp Water Temp Dewpoint Dewpoint Depression Visibility Wind Speed Wind Dir Waves Ship Positions

San Francisco Belle

Owner: HORNBLOWER CRUISES AND EVENTS, SAN FRANCISCO, CA. More information available from US FCC via Universal Licensing System and Coast Guard Vessel Documentation Center.

Last reported at 2018-Jun-15 15:03 UTC. Time now 2018-Jun-21 17:57 UTC.
Position N 38°05' W 122°15'.

Length 67 m; draft 2.1 m.

Type: Passenger vessel. MMSI: 367006980.

Date/timePositionNaut miles runAvg speedWind from/ knotsBaromVisibWave heightAir tempDewpointWater temp
2018-Jun-15 15:03N 38°05' W 122°15'0 0.1
2018-Jun-15 14:56N 38°05' W 122°15'1 2.9
2018-Jun-15 14:27N 38°04' W 122°15'0 0.5
2018-Jun-15 13:57N 38°04' W 122°15'0 0.4
2018-Jun-15 13:13N 38°04' W 122°15'1 0.7
2018-Jun-15 12:29N 38°04' W 122°16'0 0.1
2018-Jun-15 11:32N 38°04' W 122°15'0 1.5
2018-Jun-15 11:28N 38°04' W 122°15'0 0.6
2018-Jun-15 11:00N 38°04' W 122°15'2 3.3
2018-Jun-15 10:26N 38°06' W 122°16'2 3.0
2018-Jun-15 09:42N 38°04' W 122°16'1 5.1
2018-Jun-15 09:30N 38°03' W 122°17'3 4.9
2018-Jun-15 08:58N 38°02' W 122°20'3 7.3
2018-Jun-15 08:30N 38°00' W 122°24'4 7.8
2018-Jun-15 08:00N 37°57' W 122°27'3 5.3
2018-Jun-15 07:30N 37°55' W 122°25'2 4.4
2018-Jun-15 07:00N 37°53' W 122°24'3 6.3
2018-Jun-15 06:30N 37°50' W 122°23'2 3.6
2018-Jun-15 06:00N 37°48' W 122°24'0 0.0
2018-Jun-15 05:30N 37°48' W 122°24'0 0.0
2018-Jun-15 05:00N 37°48' W 122°24'  

Dump ship's entire track history